Time;durP1;ratioP1;P1;durP2;ratioP2;P2;SDS_P1;SDS_P2;PMS_P1;PMS_P2;Temp;Humidity;BMP_temperature;BMP_pressure;BME280_temperature;BME280_humidity;BME280_pressure;Samples;Min_cycle;Max_cycle;Signal;HPM_P1;HPM_P2
2021/10/25 00:02:14;;;;;;;64.03;7.22;;;;;;;;;;5094678;28;20028;-76
2021/10/25 00:04:39;;;;;;;62.15;7.13;;;;;;;;;;5094635;28;20100;-76
2021/10/25 00:07:05;;;;;;;22.25;6.47;;;;;;;;;;5094726;28;20039;-76
2021/10/25 00:09:31;;;;;;;16.85;7.10;;;;;;;;;;5094571;28;20040;-76
2021/10/25 00:11:57;;;;;;;23.13;6.60;;;;;;;;;;5094517;28;20047;-76
2021/10/25 00:14:23;;;;;;;17.63;5.72;;;;;;;;;;5094666;28;20040;-76
2021/10/25 00:16:48;;;;;;;13.82;5.03;;;;;;;;;;5094565;28;20138;-76
2021/10/25 00:19:14;;;;;;;19.35;5.07;;;;;;;;;;5093713;28;20035;-76
2021/10/25 00:21:39;;;;;;;12.77;5.25;;;;;;;;;;5094401;28;20032;-76
2021/10/25 00:24:05;;;;;;;15.32;6.10;;;;;;;;;;5093201;28;20148;-76
2021/10/25 00:26:31;;;;;;;11.07;4.88;;;;;;;;;;5094253;28;20054;-75
2021/10/25 00:28:57;;;;;;;24.23;4.70;;;;;;;;;;5094262;28;20553;-76
2021/10/25 00:31:23;;;;;;;39.83;6.22;;;;;;;;;;5092780;28;20028;-76
2021/10/25 00:33:49;;;;;;;12.48;5.32;;;;;;;;;;5093764;28;20040;-76
2021/10/25 00:36:14;;;;;;;20.20;5.15;;;;;;;;;;5092577;28;20024;-76
2021/10/25 00:38:40;;;;;;;25.92;5.57;;;;;;;;;;5093454;28;20165;-76
2021/10/25 00:41:06;;;;;;;16.80;4.80;;;;;;;;;;5093514;28;20492;-76
2021/10/25 00:43:32;;;;;;;16.75;4.80;;;;;;;;;;5093954;28;20036;-76
2021/10/25 00:45:58;;;;;;;12.80;4.60;;;;;;;;;;5092645;28;20039;-76
2021/10/25 00:48:23;;;;;;;53.33;5.63;;;;;;;;;;5093420;28;20143;-76
2021/10/25 00:50:49;;;;;;;100.50;5.95;;;;;;;;;;5092638;28;20408;-76
2021/10/25 00:53:15;;;;;;;47.28;4.53;;;;;;;;;;5093799;28;20549;-76
2021/10/25 00:55:41;;;;;;;38.72;4.53;;;;;;;;;;5093781;28;20397;-76
2021/10/25 00:58:07;;;;;;;6.63;4.75;;;;;;;;;;5093436;28;20051;-76
2021/10/25 01:00:34;;;;;;;8.00;4.68;;;;;;;;;;5093230;28;20450;-76
2021/10/25 01:02:59;;;;;;;30.90;5.32;;;;;;;;;;5092346;28;20629;-76
2021/10/25 01:05:25;;;;;;;32.08;4.97;;;;;;;;;;5093483;28;20032;-76
2021/10/25 01:07:51;;;;;;;64.10;6.00;;;;;;;;;;5092066;28;20115;-76
2021/10/25 01:10:17;;;;;;;20.65;4.90;;;;;;;;;;5092357;28;20032;-76
2021/10/25 01:12:44;;;;;;;7.45;4.78;;;;;;;;;;5092203;28;20465;-76
2021/10/25 01:15:09;;;;;;;22.02;5.13;;;;;;;;;;5092126;28;20046;-76
2021/10/25 01:17:36;;;;;;;19.77;4.40;;;;;;;;;;5093167;28;20081;-76
2021/10/25 01:20:04;;;;;;;24.20;4.63;;;;;;;;;;5092896;28;20541;-76
2021/10/25 01:22:30;;;;;;;14.73;4.47;;;;;;;;;;5091994;28;20123;-76
2021/10/25 01:24:55;;;;;;;19.15;4.50;;;;;;;;;;5093408;28;20126;-76
2021/10/25 01:27:22;;;;;;;13.45;4.50;;;;;;;;;;5091117;28;20043;-76
2021/10/25 01:29:54;;;;;;;23.83;4.45;;;;;;;;;;5092139;28;20032;-76
2021/10/25 01:32:19;;;;;;;22.52;4.82;;;;;;;;;;5092298;28;20077;-76
2021/10/25 01:34:45;;;;;;;26.17;4.60;;;;;;;;;;5091855;28;20393;-76
2021/10/25 01:37:11;;;;;;;10.40;3.75;;;;;;;;;;5092095;28;20031;-76
2021/10/25 01:39:40;;;;;;;14.48;4.20;;;;;;;;;;5091686;28;20032;-77
2021/10/25 01:42:06;;;;;;;8.93;3.90;;;;;;;;;;5093043;28;20035;-76
2021/10/25 01:44:33;;;;;;;35.58;4.55;;;;;;;;;;5091951;28;20028;-76
2021/10/25 01:46:59;;;;;;;8.45;4.07;;;;;;;;;;5093058;28;20119;-76
2021/10/25 01:49:30;;;;;;;7.88;3.72;;;;;;;;;;5092855;28;20032;-76
2021/10/25 01:51:56;;;;;;;11.98;3.90;;;;;;;;;;5096147;28;20046;-76
2021/10/25 01:54:23;;;;;;;8.27;3.88;;;;;;;;;;5094364;28;20027;-76
2021/10/25 01:56:50;;;;;;;11.20;4.38;;;;;;;;;;5097066;28;20020;-76
2021/10/25 01:59:15;;;;;;;11.13;3.92;;;;;;;;;;5095911;28;20500;-76
2021/10/25 02:01:41;;;;;;;6.82;3.65;;;;;;;;;;5094801;28;20032;-76
2021/10/25 02:04:07;;;;;;;7.70;4.00;;;;;;;;;;5095754;28;20040;-76
2021/10/25 02:06:33;;;;;;;17.58;3.88;;;;;;;;;;5095852;28;20420;-76
2021/10/25 02:08:59;;;;;;;40.53;4.32;;;;;;;;;;5095468;28;20075;-76
2021/10/25 02:11:25;;;;;;;18.65;4.30;;;;;;;;;;5095711;28;20144;-76
2021/10/25 02:14:01;;;;;;;62.17;5.00;;;;;;;;;;5095253;28;20439;-76
2021/10/25 02:16:27;;;;;;;80.15;5.00;;;;;;;;;;5095513;28;20064;-76
2021/10/25 02:18:53;;;;;;;63.03;4.72;;;;;;;;;;5095478;28;20024;-76
2021/10/25 02:21:23;;;;;;;87.75;4.93;;;;;;;;;;5095393;28;20047;-76
2021/10/25 02:23:49;;;;;;;36.63;4.55;;;;;;;;;;5094180;28;20069;-76
2021/10/25 02:26:14;;;;;;;49.28;5.00;;;;;;;;;;5095549;28;20431;-76
2021/10/25 02:28:40;;;;;;;35.92;4.93;;;;;;;;;;5095269;28;20144;-76
2021/10/25 02:31:06;;;;;;;44.88;4.75;;;;;;;;;;5096423;28;20061;-76
2021/10/25 02:33:32;;;;;;;22.35;4.75;;;;;;;;;;5095161;28;20063;-77
2021/10/25 02:35:58;;;;;;;28.23;4.88;;;;;;;;;;5095059;28;20063;-77
2021/10/25 02:38:26;;;;;;;27.33;5.50;;;;;;;;;;5094683;28;20478;-76
2021/10/25 02:40:55;;;;;;;22.90;4.63;;;;;;;;;;5093397;28;20048;-76
2021/10/25 02:43:21;;;;;;;59.08;4.93;;;;;;;;;;5096355;28;20092;-76
2021/10/25 02:45:46;;;;;;;41.13;5.60;;;;;;;;;;5096183;28;20157;-76
2021/10/25 02:48:12;;;;;;;77.13;5.60;;;;;;;;;;5094787;28;20469;-76
2021/10/25 02:50:37;;;;;;;8.00;4.22;;;;;;;;;;5094907;28;20093;-76
2021/10/25 02:53:07;;;;;;;14.02;4.63;;;;;;;;;;5094749;28;20713;-76
2021/10/25 02:55:33;;;;;;;35.17;4.45;;;;;;;;;;5094582;28;20028;-77
2021/10/25 02:57:59;;;;;;;11.02;4.20;;;;;;;;;;5094940;28;20032;-77
2021/10/25 03:00:24;;;;;;;53.08;4.72;;;;;;;;;;5076418;28;20039;-77
2021/10/25 03:02:50;;;;;;;8.02;4.10;;;;;;;;;;5094491;28;20031;-76
2021/10/25 03:05:16;;;;;;;7.55;3.90;;;;;;;;;;5094634;28;20488;-76
2021/10/25 03:07:43;;;;;;;7.63;4.00;;;;;;;;;;5094556;28;20063;-76
2021/10/25 03:10:10;;;;;;;12.30;4.55;;;;;;;;;;5094161;28;20024;-76
2021/10/25 03:12:37;;;;;;;10.82;3.90;;;;;;;;;;5095819;28;20032;-76
2021/10/25 03:15:05;;;;;;;31.27;4.07;;;;;;;;;;5094448;28;20042;-77
2021/10/25 03:17:31;;;;;;;5.05;3.90;;;;;;;;;;5094190;28;20028;-76
2021/10/25 03:20:12;;;;;;;22.10;5.07;;;;;;;;;;5094170;28;20549;-76
2021/10/25 03:22:42;;;;;;;13.30;4.18;;;;;;;;;;5094246;28;20089;-76
2021/10/25 03:25:09;;;;;;;6.53;4.43;;;;;;;;;;5092772;28;20028;-76
2021/10/25 03:27:37;;;;;;;24.75;5.15;;;;;;;;;;5093744;28;20236;-76
2021/10/25 03:30:04;;;;;;;115.20;6.15;;;;;;;;;;5093903;28;20036;-76
2021/10/25 03:32:29;;;;;;;79.70;5.13;;;;;;;;;;5095212;28;20024;-76
2021/10/25 03:35:13;;;;;;;17.80;3.92;;;;;;;;;;5093996;28;20039;-77
2021/10/25 03:37:39;;;;;;;19.77;4.03;;;;;;;;;;5093632;28;20035;-76
2021/10/25 03:40:06;;;;;;;55.72;4.85;;;;;;;;;;5093700;28;20090;-76
2021/10/25 03:42:38;;;;;;;25.52;4.38;;;;;;;;;;5093807;28;20040;-77
2021/10/25 03:50:10;;;;;;;25.20;4.07;;;;;;;;;;5093774;28;20090;-76
2021/10/25 03:53:20;;;;;;;40.42;5.32;;;;;;;;;;5095051;28;20086;-76
2021/10/25 03:55:53;;;;;;;15.82;3.90;;;;;;;;;;5093236;28;20050;-77
2021/10/25 04:26:07;;;;;;;17.50;3.58;;;;;;;;;;5093523;28;20027;-76
2021/10/25 04:28:35;;;;;;;8.77;3.58;;;;;;;;;;5076319;28;20717;-76
2021/10/25 04:31:02;;;;;;;20.58;4.38;;;;;;;;;;5092974;28;20028;-76
2021/10/25 04:33:38;;;;;;;22.48;3.72;;;;;;;;;;5093545;28;20028;-76
2021/10/25 04:36:15;;;;;;;7.20;3.55;;;;;;;;;;5093674;28;20032;-77
2021/10/25 04:39:07;;;;;;;22.33;3.55;;;;;;;;;;5093509;28;20123;-76
2021/10/25 04:41:33;;;;;;;7.70;3.42;;;;;;;;;;5092563;28;20040;-76
2021/10/25 04:43:58;;;;;;;8.07;3.67;;;;;;;;;;5092716;28;20035;-77
2021/10/25 04:46:24;;;;;;;5.75;3.90;;;;;;;;;;5092956;28;20046;-76
2021/10/25 04:48:49;;;;;;;22.33;4.60;;;;;;;;;;5092977;28;20051;-77
2021/10/25 04:51:21;;;;;;;22.02;4.50;;;;;;;;;;5093077;28;20579;-76
2021/10/25 04:53:58;;;;;;;63.17;4.25;;;;;;;;;;5091530;28;20482;-76
2021/10/25 04:56:29;;;;;;;12.38;4.25;;;;;;;;;;5093388;28;20031;-76
2021/10/25 04:58:55;;;;;;;14.13;3.80;;;;;;;;;;5092390;28;20027;-76
2021/10/25 05:01:21;;;;;;;52.15;4.68;;;;;;;;;;5093334;28;20032;-76
2021/10/25 05:03:46;;;;;;;59.08;5.13;;;;;;;;;;5076669;28;20028;-76
2021/10/25 05:06:19;;;;;;;14.85;4.10;;;;;;;;;;5092820;28;20047;-76
2021/10/25 05:08:48;;;;;;;36.83;4.97;;;;;;;;;;5092570;28;20040;-76
2021/10/25 05:11:15;;;;;;;19.95;4.32;;;;;;;;;;5093680;28;20119;-76
2021/10/25 05:13:42;;;;;;;48.85;4.68;;;;;;;;;;5092926;28;20104;-76
2021/10/25 05:16:08;;;;;;;25.58;4.15;;;;;;;;;;5093146;28;20378;-77
2021/10/25 05:18:36;;;;;;;47.70;4.80;;;;;;;;;;5092685;28;20028;-76
2021/10/25 05:21:02;;;;;;;30.17;4.40;;;;;;;;;;5092325;28;20028;-76
2021/10/25 05:23:28;;;;;;;15.68;4.18;;;;;;;;;;5092617;28;20051;-77
2021/10/25 05:25:54;;;;;;;22.70;4.03;;;;;;;;;;5095542;28;20423;-77
2021/10/25 05:28:19;;;;;;;12.82;4.10;;;;;;;;;;5093715;28;20040;-77
2021/10/25 05:30:45;;;;;;;14.80;3.92;;;;;;;;;;5092689;28;20028;-79
2021/10/25 05:33:19;;;;;;;5.45;3.70;;;;;;;;;;5091911;28;20055;-76
2021/10/25 05:35:45;;;;;;;13.00;3.92;;;;;;;;;;5092732;28;20043;-77
2021/10/25 05:38:12;;;;;;;27.10;4.07;;;;;;;;;;5095009;28;20024;-76
2021/10/25 05:40:39;;;;;;;22.98;4.13;;;;;;;;;;5091718;28;20409;-76
2021/10/25 05:43:04;;;;;;;12.95;3.88;;;;;;;;;;5092288;28;20152;-78
2021/10/25 05:45:30;;;;;;;17.13;4.35;;;;;;;;;;5092915;28;20028;-77
2021/10/25 05:47:57;;;;;;;5.43;3.90;;;;;;;;;;5093473;28;20143;-78
2021/10/25 05:50:22;;;;;;;7.63;3.30;;;;;;;;;;5094421;28;20069;-77
2021/10/25 05:52:48;;;;;;;6.50;3.80;;;;;;;;;;5091772;28;20032;-76
2021/10/25 05:55:22;;;;;;;15.40;3.70;;;;;;;;;;5091548;28;20085;-78
2021/10/25 05:57:48;;;;;;;18.60;4.20;;;;;;;;;;5092598;28;20123;-77
2021/10/25 06:00:15;;;;;;;9.50;3.95;;;;;;;;;;5091573;28;20028;-77
2021/10/25 06:02:50;;;;;;;12.32;4.00;;;;;;;;;;5093332;28;20085;-77
2021/10/25 06:05:16;;;;;;;5.57;3.72;;;;;;;;;;5091738;28;20036;-77
2021/10/25 06:07:49;;;;;;;6.20;3.88;;;;;;;;;;5091750;28;20044;-77
2021/10/25 06:10:19;;;;;;;31.63;4.13;;;;;;;;;;5091635;28;20123;-77
2021/10/25 06:12:49;;;;;;;12.27;3.92;;;;;;;;;;5091621;28;20466;-77
2021/10/25 06:15:39;;;;;;;11.23;3.70;;;;;;;;;;5088572;28;20135;-77
2021/10/25 06:18:09;;;;;;;10.93;3.30;;;;;;;;;;5091911;28;20032;-76
2021/10/25 06:20:39;;;;;;;14.45;3.85;;;;;;;;;;5091707;28;20031;-76
2021/10/25 06:23:10;;;;;;;16.42;3.72;;;;;;;;;;5090527;28;20032;-77
2021/10/25 06:25:41;;;;;;;16.77;3.33;;;;;;;;;;5091610;28;20101;-77
2021/10/25 06:28:14;;;;;;;9.20;3.90;;;;;;;;;;5091512;28;20066;-77
2021/10/25 06:30:55;;;;;;;6.93;3.75;;;;;;;;;;5091421;28;20028;-77
2021/10/25 06:33:22;;;;;;;84.68;4.22;;;;;;;;;;5091647;28;20031;-77
2021/10/25 06:36:08;;;;;;;80.18;4.90;;;;;;;;;;5095100;28;20081;-77
2021/10/25 06:38:55;;;;;;;9.02;3.85;;;;;;;;;;5095201;28;20028;-77
2021/10/25 06:41:21;;;;;;;11.25;4.13;;;;;;;;;;5095147;28;20397;-77
2021/10/25 06:43:50;;;;;;;9.43;3.70;;;;;;;;;;5095281;28;20032;-77
2021/10/25 06:46:18;;;;;;;23.13;4.03;;;;;;;;;;5094600;28;20109;-77
2021/10/25 06:48:44;;;;;;;10.05;4.10;;;;;;;;;;5095235;28;20170;-77
2021/10/25 06:51:10;;;;;;;5.80;3.65;;;;;;;;;;5096482;28;20510;-77
2021/10/25 06:53:38;;;;;;;9.02;3.50;;;;;;;;;;5095177;28;20028;-77
2021/10/25 06:56:14;;;;;;;13.85;4.63;;;;;;;;;;5095110;28;20028;-77
2021/10/25 06:58:40;;;;;;;14.45;4.47;;;;;;;;;;5094719;28;20027;-77
2021/10/25 07:01:06;;;;;;;20.10;4.10;;;;;;;;;;5094583;28;20094;-77
2021/10/25 07:03:33;;;;;;;21.02;4.10;;;;;;;;;;5095078;28;20115;-77
2021/10/25 07:06:01;;;;;;;13.43;3.80;;;;;;;;;;5094757;28;20119;-77
2021/10/25 07:08:29;;;;;;;20.83;3.80;;;;;;;;;;5094901;28;20032;-77
2021/10/25 07:10:54;;;;;;;17.17;3.45;;;;;;;;;;5096013;28;20509;-77
2021/10/25 07:13:22;;;;;;;21.13;3.90;;;;;;;;;;5094472;28;20090;-77
2021/10/25 07:16:01;;;;;;;8.38;3.95;;;;;;;;;;5094379;28;20135;-77
2021/10/25 07:18:31;;;;;;;26.30;4.43;;;;;;;;;;5077931;28;20047;-77
2021/10/25 08:05:38;;;;;;;89.30;6.78;;;;;;;;;;5073393;28;20446;-77
2021/10/25 08:08:26;;;;;;;7.82;5.20;;;;;;;;;;5056832;28;20036;-77
2021/10/25 08:11:02;;;;;;;7.22;4.75;;;;;;;;;;5072902;28;20441;-78
2021/10/25 08:13:40;;;;;;;6.68;4.82;;;;;;;;;;5073206;28;20031;-78
2021/10/25 08:16:20;;;;;;;27.70;4.50;;;;;;;;;;5092926;28;20035;-77
2021/10/25 08:21:15;;;;;;;5.65;3.97;;;;;;;;;;5093218;28;20435;-77
2021/10/25 08:23:41;;;;;;;4.35;3.53;;;;;;;;;;5091925;28;20028;-77
2021/10/25 08:26:27;;;;;;;4.83;4.00;;;;;;;;;;5094309;28;20072;-77
2021/10/25 08:28:56;;;;;;;5.85;3.95;;;;;;;;;;5093318;28;20474;-78
2021/10/25 08:31:23;;;;;;;5.20;3.35;;;;;;;;;;5093328;28;20036;-78
2021/10/25 08:34:15;;;;;;;5.18;3.60;;;;;;;;;;5093151;28;20043;-77
2021/10/25 08:42:11;;;;;;;5.15;3.17;;;;;;;;;;5072684;28;20039;-78
2021/10/25 08:44:39;;;;;;;8.20;3.55;;;;;;;;;;5072412;28;20127;-77
2021/10/25 08:47:05;;;;;;;7.68;4.32;;;;;;;;;;5072659;28;20043;-77
2021/10/25 08:49:30;;;;;;;6.43;4.25;;;;;;;;;;5072532;28;20024;-77
2021/10/25 08:51:56;;;;;;;20.42;5.18;;;;;;;;;;5072528;28;20094;-78
2021/10/25 08:54:29;;;;;;;13.82;5.13;;;;;;;;;;5072194;28;20036;-77
2021/10/25 08:56:58;;;;;;;13.55;5.57;;;;;;;;;;5072510;28;20036;-76
2021/10/25 08:59:29;;;;;;;10.75;6.03;;;;;;;;;;5071942;28;20028;-77
2021/10/25 09:02:08;;;;;;;11.05;6.53;;;;;;;;;;5055722;28;20032;-78
2021/10/25 09:05:04;;;;;;;8.45;5.80;;;;;;;;;;5072339;28;20063;-77
2021/10/25 09:07:55;;;;;;;9.50;6.10;;;;;;;;;;5072221;28;20033;-78
2021/10/25 09:10:37;;;;;;;9.65;6.03;;;;;;;;;;5083576;28;20090;-78
2021/10/25 09:13:09;;;;;;;8.75;5.80;;;;;;;;;;5092630;28;20036;-78
2021/10/25 09:15:41;;;;;;;6.47;4.82;;;;;;;;;;5092530;28;20032;-77
2021/10/25 09:18:31;;;;;;;9.60;6.60;;;;;;;;;;5092867;28;20070;-78
2021/10/25 09:21:05;;;;;;;8.38;6.18;;;;;;;;;;5092359;28;20630;-77
2021/10/25 09:23:49;;;;;;;8.93;5.82;;;;;;;;;;5091884;28;20035;-77
2021/10/25 09:26:20;;;;;;;7.53;5.70;;;;;;;;;;5092076;28;20093;-76
2021/10/25 09:28:51;;;;;;;7.38;5.50;;;;;;;;;;5093277;28;20036;-77
2021/10/25 09:31:23;;;;;;;8.60;5.05;;;;;;;;;;5092186;28;20440;-78
2021/10/25 09:33:57;;;;;;;6.05;4.45;;;;;;;;;;5092322;28;20044;-75
2021/10/25 09:36:38;;;;;;;6.03;4.60;;;;;;;;;;5092347;28;20124;-75
2021/10/25 09:39:12;;;;;;;6.35;4.90;;;;;;;;;;5091966;28;20504;-75
2021/10/25 09:50:06;;;;;;;8.52;5.68;;;;;;;;;;5112292;28;20027;-75
2021/10/25 09:52:40;;;;;;;8.07;5.68;;;;;;;;;;5112277;28;20130;-75
2021/10/25 09:55:13;;;;;;;12.88;6.25;;;;;;;;;;5112525;28;20027;-76
2021/10/25 10:00:34;;;;;;;7.18;4.80;;;;;;;;;;5112157;28;20491;-76
2021/10/25 10:03:01;;;;;;;8.10;4.78;;;;;;;;;;5112301;28;20746;-75
2021/10/25 10:05:59;;;;;;;10.15;4.70;;;;;;;;;;5109382;28;20043;-76
2021/10/25 10:08:28;;;;;;;7.70;4.95;;;;;;;;;;5112105;28;20147;-75
2021/10/25 10:10:56;;;;;;;6.30;4.45;;;;;;;;;;5114503;28;20135;-75
2021/10/25 10:13:23;;;;;;;9.75;5.65;;;;;;;;;;5116110;28;20028;-76
2021/10/25 10:16:07;;;;;;;8.13;4.40;;;;;;;;;;5076526;28;20436;-76
2021/10/25 10:18:43;;;;;;;7.43;5.30;;;;;;;;;;5075521;28;20032;-76
2021/10/25 10:21:28;;;;;;;10.20;4.78;;;;;;;;;;5076527;28;20048;-75
2021/10/25 10:24:05;;;;;;;8.27;5.35;;;;;;;;;;5081349;28;20115;-75
2021/10/25 10:26:32;;;;;;;6.60;4.28;;;;;;;;;;5096934;28;20024;-76
2021/10/25 10:29:14;;;;;;;8.75;4.88;;;;;;;;;;5095242;28;20051;-75
2021/10/25 10:32:03;;;;;;;8.70;5.40;;;;;;;;;;5091921;28;20122;-75
2021/10/25 10:34:51;;;;;;;8.48;5.45;;;;;;;;;;5081309;28;20408;-75
2021/10/25 10:37:41;;;;;;;10.70;6.22;;;;;;;;;;5095321;28;20036;-77
2021/10/25 10:40:15;;;;;;;9.48;5.72;;;;;;;;;;5078437;28;20485;-77
2021/10/25 10:43:24;;;;;;;9.07;5.47;;;;;;;;;;5094192;28;20039;-77
2021/10/25 10:46:12;;;;;;;10.70;6.25;;;;;;;;;;5094843;28;20485;-76
2021/10/25 10:48:39;;;;;;;9.98;5.95;;;;;;;;;;5095174;28;20039;-77
2021/10/25 10:51:10;;;;;;;14.57;5.72;;;;;;;;;;5096093;28;20035;-76
2021/10/25 10:53:42;;;;;;;11.52;6.68;;;;;;;;;;5096160;28;20028;-76
2021/10/25 10:56:22;;;;;;;9.57;5.32;;;;;;;;;;5094792;28;20040;-76
2021/10/25 10:58:51;;;;;;;10.30;6.05;;;;;;;;;;5095865;28;20093;-76
2021/10/25 11:01:16;;;;;;;11.45;6.03;;;;;;;;;;5094560;28;20477;-76
2021/10/25 11:03:42;;;;;;;11.70;5.18;;;;;;;;;;5096326;28;20063;-77
2021/10/25 11:06:16;;;;;;;12.07;6.45;;;;;;;;;;5096191;28;20082;-76
2021/10/25 11:08:43;;;;;;;8.85;5.90;;;;;;;;;;5094537;28;20043;-77
2021/10/25 11:11:13;;;;;;;13.15;5.53;;;;;;;;;;5094723;28;20545;-77
2021/10/25 11:13:47;;;;;;;8.88;5.43;;;;;;;;;;5094188;28;20554;-77
2021/10/25 11:19:04;;;;;;;10.57;5.32;;;;;;;;;;5084394;28;20089;-77
2021/10/25 11:21:38;;;;;;;10.35;5.38;;;;;;;;;;5094280;28;20496;-77
2021/10/25 11:24:05;;;;;;;9.23;4.60;;;;;;;;;;5095618;28;20476;-76
2021/10/25 11:26:48;;;;;;;8.85;3.83;;;;;;;;;;5094086;28;20127;-77
2021/10/25 11:29:26;;;;;;;6.90;3.85;;;;;;;;;;5095268;28;20040;-77
2021/10/25 11:32:07;;;;;;;6.85;4.25;;;;;;;;;;5095359;28;20071;-76
2021/10/25 11:34:40;;;;;;;6.90;4.50;;;;;;;;;;5095536;28;20452;-77
2021/10/25 11:37:07;;;;;;;6.30;4.07;;;;;;;;;;5095392;28;20045;-77
2021/10/25 11:39:43;;;;;;;8.35;4.28;;;;;;;;;;5095030;28;20040;-77
2021/10/25 11:42:11;;;;;;;6.38;4.28;;;;;;;;;;5095251;28;20089;-77
2021/10/25 11:44:40;;;;;;;7.13;4.45;;;;;;;;;;5094331;28;20032;-77
2021/10/25 11:47:17;;;;;;;9.63;4.72;;;;;;;;;;5095308;28;20055;-77
2021/10/25 11:49:43;;;;;;;8.15;4.22;;;;;;;;;;5095084;28;20036;-76
2021/10/25 11:52:09;;;;;;;8.23;3.70;;;;;;;;;;5095171;28;20051;-76
2021/10/25 11:54:47;;;;;;;12.15;4.75;;;;;;;;;;5094625;28;20039;-76
2021/10/25 11:57:13;;;;;;;8.55;4.22;;;;;;;;;;5093868;28;20089;-76
2021/10/25 11:59:39;;;;;;;10.52;4.90;;;;;;;;;;5094790;28;20036;-76
2021/10/25 12:02:09;;;;;;;8.38;4.85;;;;;;;;;;5093439;28;20047;-76
2021/10/25 12:04:44;;;;;;;9.85;4.88;;;;;;;;;;5095094;28;20032;-76
2021/10/25 12:07:10;;;;;;;9.43;5.00;;;;;;;;;;5093685;28;20047;-76
2021/10/25 12:09:36;;;;;;;9.20;4.63;;;;;;;;;;5092591;28;20036;-76
2021/10/25 12:12:17;;;;;;;7.00;4.30;;;;;;;;;;5094581;28;20339;-76
2021/10/25 12:14:45;;;;;;;8.15;5.15;;;;;;;;;;5094748;28;20044;-76
2021/10/25 12:17:20;;;;;;;7.47;4.00;;;;;;;;;;5094728;28;20412;-76
2021/10/25 12:19:46;;;;;;;9.90;4.88;;;;;;;;;;5094713;28;20032;-76
2021/10/25 12:22:19;;;;;;;7.03;4.38;;;;;;;;;;5094613;28;20039;-76
2021/10/25 12:24:48;;;;;;;9.63;4.32;;;;;;;;;;5094271;28;20036;-76
2021/10/25 12:27:20;;;;;;;10.68;4.90;;;;;;;;;;5094240;28;20036;-76
2021/10/25 12:29:56;;;;;;;7.35;4.68;;;;;;;;;;5094590;28;20032;-76
2021/10/25 12:32:22;;;;;;;10.00;4.95;;;;;;;;;;5093913;28;20040;-76
2021/10/25 12:34:50;;;;;;;12.82;5.00;;;;;;;;;;5094214;28;20035;-76
2021/10/25 12:37:26;;;;;;;6.88;5.15;;;;;;;;;;5094242;28;20047;-76
2021/10/25 12:39:54;;;;;;;9.82;5.20;;;;;;;;;;5093787;28;20044;-76
2021/10/25 12:42:19;;;;;;;10.05;4.63;;;;;;;;;;5094150;28;20035;-76
2021/10/25 12:44:48;;;;;;;9.15;5.18;;;;;;;;;;5093015;28;20506;-76
2021/10/25 12:47:16;;;;;;;10.45;5.60;;;;;;;;;;5094201;28;20035;-76
2021/10/25 12:49:47;;;;;;;9.60;5.38;;;;;;;;;;5094121;28;20036;-76
2021/10/25 12:52:13;;;;;;;13.00;5.03;;;;;;;;;;5093966;28;20032;-76
2021/10/25 12:54:39;;;;;;;10.50;5.38;;;;;;;;;;5094133;28;20058;-76
2021/10/25 12:57:15;;;;;;;8.32;5.45;;;;;;;;;;5093873;28;20056;-76
2021/10/25 12:59:41;;;;;;;9.27;5.25;;;;;;;;;;5093877;28;20366;-76
2021/10/25 13:02:09;;;;;;;8.90;5.55;;;;;;;;;;5092880;28;20032;-76
2021/10/25 13:04:35;;;;;;;10.38;5.75;;;;;;;;;;5093898;28;20082;-76
2021/10/25 13:07:14;;;;;;;11.55;4.88;;;;;;;;;;5093851;28;20047;-76
2021/10/25 13:09:52;;;;;;;7.63;5.00;;;;;;;;;;5092584;28;20036;-76
2021/10/25 13:12:19;;;;;;;10.63;5.88;;;;;;;;;;5093699;28;20042;-76
2021/10/25 13:14:45;;;;;;;10.38;4.95;;;;;;;;;;5093842;28;20094;-76
2021/10/25 13:17:11;;;;;;;8.32;5.03;;;;;;;;;;5093621;28;20043;-76
2021/10/25 13:19:37;;;;;;;10.05;5.40;;;;;;;;;;5093677;28;20057;-76
2021/10/25 13:22:02;;;;;;;10.23;6.07;;;;;;;;;;5093553;28;20040;-76
2021/10/25 13:24:28;;;;;;;14.35;5.78;;;;;;;;;;5093167;28;20040;-76
2021/10/25 13:26:54;;;;;;;12.25;6.03;;;;;;;;;;5092741;28;20085;-76
2021/10/25 13:29:19;;;;;;;10.93;6.00;;;;;;;;;;5093306;28;20155;-76
2021/10/25 13:31:45;;;;;;;11.32;5.88;;;;;;;;;;5093454;28;20060;-76
2021/10/25 13:34:10;;;;;;;7.25;5.03;;;;;;;;;;5075444;28;20394;-76
2021/10/25 13:36:36;;;;;;;9.07;6.10;;;;;;;;;;5093557;28;20609;-76
2021/10/25 13:39:02;;;;;;;8.20;5.25;;;;;;;;;;5093365;28;20032;-76
2021/10/25 13:41:27;;;;;;;10.73;5.47;;;;;;;;;;5093255;28;20062;-76
2021/10/25 13:43:53;;;;;;;10.68;5.93;;;;;;;;;;5092874;28;20032;-76
2021/10/25 13:46:19;;;;;;;14.68;5.65;;;;;;;;;;5097733;28;20489;-76
2021/10/25 13:48:44;;;;;;;10.50;5.68;;;;;;;;;;5096688;28;20359;-76
2021/10/25 13:51:10;;;;;;;7.57;5.25;;;;;;;;;;5097553;28;20028;-76
2021/10/25 13:53:36;;;;;;;11.75;5.90;;;;;;;;;;5097469;28;20071;-76
2021/10/25 13:56:04;;;;;;;10.95;5.90;;;;;;;;;;5097487;28;20038;-76
2021/10/25 13:58:29;;;;;;;8.45;4.80;;;;;;;;;;5097247;28;20032;-76
2021/10/25 14:00:54;;;;;;;9.23;4.85;;;;;;;;;;5094951;28;20032;-76
2021/10/25 14:03:20;;;;;;;9.38;5.43;;;;;;;;;;5097239;28;20040;-76
2021/10/25 14:05:47;;;;;;;12.25;5.43;;;;;;;;;;5097280;28;20023;-76
2021/10/25 14:08:13;;;;;;;8.65;5.05;;;;;;;;;;5096071;28;20050;-76
2021/10/25 14:10:44;;;;;;;9.20;4.80;;;;;;;;;;5094943;28;20130;-76
2021/10/25 14:13:16;;;;;;;10.27;5.53;;;;;;;;;;5097258;28;20060;-76
2021/10/25 14:15:56;;;;;;;9.88;5.35;;;;;;;;;;5095890;28;20044;-76
2021/10/25 14:18:21;;;;;;;10.30;5.47;;;;;;;;;;5095722;28;20062;-76
2021/10/25 14:20:46;;;;;;;14.45;5.22;;;;;;;;;;5097039;28;20028;-76
2021/10/25 14:23:12;;;;;;;15.55;4.60;;;;;;;;;;5096896;28;20114;-76
2021/10/25 14:25:37;;;;;;;7.72;4.55;;;;;;;;;;5096577;28;20044;-76
2021/10/25 14:28:03;;;;;;;10.88;4.38;;;;;;;;;;5097022;28;20044;-76
2021/10/25 14:30:32;;;;;;;10.23;4.78;;;;;;;;;;5096655;28;20043;-76
2021/10/25 14:32:58;;;;;;;8.70;4.95;;;;;;;;;;5096796;28;20055;-76
2021/10/25 14:35:26;;;;;;;6.65;4.55;;;;;;;;;;5096883;28;20039;-76
2021/10/25 14:37:53;;;;;;;8.93;4.70;;;;;;;;;;5096572;28;20050;-76
2021/10/25 14:40:24;;;;;;;8.63;5.45;;;;;;;;;;5094939;28;20039;-76
2021/10/25 14:42:55;;;;;;;8.70;4.88;;;;;;;;;;5096663;28;20377;-76
2021/10/25 14:45:25;;;;;;;7.68;5.10;;;;;;;;;;5095068;28;20130;-76
2021/10/25 14:48:17;;;;;;;11.52;5.80;;;;;;;;;;5096381;28;20112;-76
2021/10/25 14:58:22;;;;;;;9.35;4.53;;;;;;;;;;5096311;28;20035;-75
2021/10/25 15:00:47;;;;;;;10.80;4.50;;;;;;;;;;5095187;28;20493;-76
2021/10/25 15:03:13;;;;;;;10.23;4.28;;;;;;;;;;5095887;28;20036;-76
2021/10/25 15:05:40;;;;;;;10.93;4.85;;;;;;;;;;5096060;28;20036;-76
2021/10/25 15:08:06;;;;;;;9.25;4.95;;;;;;;;;;5096156;28;20495;-76
2021/10/25 15:10:32;;;;;;;10.13;4.70;;;;;;;;;;5094632;28;20036;-76
2021/10/25 15:12:57;;;;;;;11.32;4.88;;;;;;;;;;5096023;28;20036;-76
2021/10/25 15:15:22;;;;;;;10.77;5.38;;;;;;;;;;5095885;28;20504;-76
2021/10/25 15:17:48;;;;;;;9.82;5.90;;;;;;;;;;5095507;28;20031;-76
2021/10/25 15:20:15;;;;;;;8.23;5.57;;;;;;;;;;5095939;28;20028;-76
2021/10/25 15:22:41;;;;;;;12.05;5.00;;;;;;;;;;5095712;28;20035;-76
2021/10/25 15:25:08;;;;;;;9.73;4.82;;;;;;;;;;5093679;28;20374;-76
2021/10/25 15:27:36;;;;;;;10.80;5.13;;;;;;;;;;5095661;28;20437;-76
2021/10/25 15:30:02;;;;;;;12.38;6.65;;;;;;;;;;5093325;28;20040;-76
2021/10/25 15:32:29;;;;;;;10.52;6.75;;;;;;;;;;5095304;28;20036;-76
2021/10/25 15:34:56;;;;;;;12.93;6.85;;;;;;;;;;5095799;28;20043;-76
2021/10/25 15:37:25;;;;;;;12.15;5.70;;;;;;;;;;5095602;28;20543;-76
2021/10/25 15:39:50;;;;;;;8.05;5.13;;;;;;;;;;5095243;28;20437;-76
2021/10/25 15:42:17;;;;;;;6.68;4.53;;;;;;;;;;5095722;28;20154;-76
2021/10/25 15:44:44;;;;;;;13.55;5.10;;;;;;;;;;5095448;28;20381;-76
2021/10/25 15:47:11;;;;;;;8.13;4.15;;;;;;;;;;5094901;28;20119;-76
2021/10/25 15:49:37;;;;;;;12.18;5.53;;;;;;;;;;5095286;28;20040;-76
2021/10/25 15:52:03;;;;;;;13.05;4.88;;;;;;;;;;5095132;28;20486;-76
2021/10/25 15:54:31;;;;;;;13.32;6.32;;;;;;;;;;5078319;28;20028;-76
2021/10/25 15:56:57;;;;;;;13.30;7.75;;;;;;;;;;5074885;28;20040;-76
2021/10/25 15:59:23;;;;;;;13.88;8.68;;;;;;;;;;5074723;28;20081;-76
2021/10/25 16:01:49;;;;;;;15.55;8.23;;;;;;;;;;5074623;28;20050;-76
2021/10/25 16:04:14;;;;;;;13.68;6.10;;;;;;;;;;5074817;28;20608;-76
2021/10/25 16:06:42;;;;;;;11.85;6.72;;;;;;;;;;5074773;28;20415;-76
2021/10/25 16:09:07;;;;;;;17.42;9.63;;;;;;;;;;5071997;28;20051;-76
2021/10/25 16:11:34;;;;;;;17.65;7.97;;;;;;;;;;5074540;28;20028;-76
2021/10/25 16:14:00;;;;;;;17.20;8.30;;;;;;;;;;5082884;28;20082;-76
2021/10/25 16:16:25;;;;;;;13.55;6.18;;;;;;;;;;5094905;28;20501;-76
2021/10/25 16:18:50;;;;;;;13.35;7.07;;;;;;;;;;5094785;28;20469;-76
2021/10/25 16:21:16;;;;;;;10.85;7.05;;;;;;;;;;5094578;28;20127;-76
2021/10/25 16:23:41;;;;;;;12.32;6.70;;;;;;;;;;5094414;28;20044;-76
2021/10/25 16:26:07;;;;;;;10.85;6.45;;;;;;;;;;5094692;28;20102;-76
2021/10/25 16:28:32;;;;;;;17.98;7.20;;;;;;;;;;5094396;28;20039;-76
2021/10/25 16:30:58;;;;;;;24.08;7.53;;;;;;;;;;5094599;28;20042;-76
2021/10/25 16:33:27;;;;;;;16.88;7.07;;;;;;;;;;5094573;28;20032;-76
2021/10/25 16:35:53;;;;;;;17.10;7.05;;;;;;;;;;5094372;28;20059;-76
2021/10/25 16:38:20;;;;;;;16.40;6.50;;;;;;;;;;5092969;28;20378;-76